Terminal Aerodrome Forecast
Issued by NWS

Home | Current Version | Previous Version | Text Only | Print | Product List | Glossary On
Versions: 1 2 3 4 5 6 7 8 9 10 11 12 13 14
000
FTUS46 KSTO 251100
TAFRBL
TAF
KRBL 251126Z 2512/2612 16025G35KT 5SM -RA OVC040
      TEMPO 2514/2516 2SM RA OVC025
     FM252000 17030G40KT P6SM VCSH BKN030
     FM260300 16020G30KT P6SM VCSH BKN050
     FM260800 17012KT P6SM BKN070=

USA.gov is the U.S. government's official web portal to all federal, state and local government web resources and services.